Time;durP1;ratioP1;P1;durP2;ratioP2;P2;SDS_P1;SDS_P2;PMS_P1;PMS_P2;Temp;Humidity;BMP_temperature;BMP_pressure;BME280_temperature;BME280_humidity;BME280_pressure;Samples;Min_cycle;Max_cycle;Signal;HPM_P1;HPM_P2
2022/06/03 00:01:55;;;;;;;8.32;3.63;;;;;;;;;;6116122;23;20678;-85
2022/06/03 00:19:15;;;;;;;7.25;3.60;;;;;;;;;;6282960;22;20022;-85
2022/06/03 00:22:01;;;;;;;5.82;3.60;;;;;;;;;;6280016;22;20020;-85
2022/06/03 00:48:47;;;;;;;7.07;3.72;;;;;;;;;;6278945;22;20015;-84
2022/06/03 00:51:24;;;;;;;6.95;3.50;;;;;;;;;;6242037;22;20027;-85
2022/06/03 00:53:58;;;;;;;7.55;3.53;;;;;;;;;;6278888;22;20020;-88
2022/06/03 00:57:00;;;;;;;8.23;3.85;;;;;;;;;;6280021;22;20016;-87
2022/06/03 00:59:54;;;;;;;8.18;4.22;;;;;;;;;;6278914;22;20069;-88
2022/06/03 01:02:50;;;;;;;7.47;3.95;;;;;;;;;;6279659;22;20733;-87
2022/06/03 01:05:57;;;;;;;6.68;3.67;;;;;;;;;;6279829;22;20012;-88
2022/06/03 01:08:43;;;;;;;6.63;3.70;;;;;;;;;;6126786;23;20088;-88
2022/06/03 01:11:23;;;;;;;5.88;3.47;;;;;;;;;;6127853;23;20026;-88
2022/06/03 01:14:20;;;;;;;9.13;3.60;;;;;;;;;;6127640;23;20666;-90
2022/06/03 01:17:25;;;;;;;6.65;3.45;;;;;;;;;;6122775;23;20030;-89
2022/06/03 01:20:53;;;;;;;8.32;3.80;;;;;;;;;;6127527;23;20045;-89
2022/06/03 01:33:39;;;;;;;6.43;3.15;;;;;;;;;;6070552;23;20033;-90
2022/06/03 02:11:07;;;;;;;7.78;3.50;;;;;;;;;;6280187;22;20359;-85
2022/06/03 02:17:39;;;;;;;8.00;3.60;;;;;;;;;;6242953;22;20070;-89
2022/06/03 02:20:26;;;;;;;5.95;3.28;;;;;;;;;;6242416;22;20807;-89
2022/06/03 02:23:31;;;;;;;8.52;3.53;;;;;;;;;;6268414;22;20038;-89
2022/06/03 02:27:18;;;;;;;6.70;3.70;;;;;;;;;;6243476;22;20162;-90
2022/06/03 02:30:24;;;;;;;8.07;4.20;;;;;;;;;;6255084;22;20329;-89
2022/06/03 02:33:31;;;;;;;6.28;3.55;;;;;;;;;;6279075;22;20043;-85
2022/06/03 04:57:50;;;;;;;14.20;6.03;;;;;;;;;;6282500;22;20095;-88
2022/06/03 05:00:42;;;;;;;15.68;6.43;;;;;;;;;;6281630;22;20074;-88
2022/06/03 05:03:58;;;;;;;12.05;6.32;;;;;;;;;;6281533;22;20071;-88
2022/06/03 05:06:56;;;;;;;16.15;7.25;;;;;;;;;;6279537;22;20019;-88
2022/06/03 05:10:23;;;;;;;12.95;7.05;;;;;;;;;;6254423;22;20042;-88
2022/06/03 05:13:30;;;;;;;15.30;6.78;;;;;;;;;;6278844;22;20004;-84
2022/06/03 05:16:30;;;;;;;15.00;7.88;;;;;;;;;;6280442;22;20121;-83
2022/06/03 05:18:57;;;;;;;13.45;7.55;;;;;;;;;;6280403;22;20030;-83
2022/06/03 05:22:09;;;;;;;14.93;8.27;;;;;;;;;;6280813;22;20020;-83
2022/06/03 05:25:19;;;;;;;15.35;7.95;;;;;;;;;;6282036;22;20388;-82
2022/06/03 05:28:22;;;;;;;18.75;9.60;;;;;;;;;;6272609;22;20020;-82
2022/06/03 05:31:29;;;;;;;20.05;9.10;;;;;;;;;;6243237;22;20741;-83
2022/06/03 05:34:22;;;;;;;16.50;9.70;;;;;;;;;;6280152;22;20085;-84
2022/06/03 05:37:52;;;;;;;18.48;10.02;;;;;;;;;;6270674;22;20721;-83
2022/06/03 05:40:49;;;;;;;23.30;9.95;;;;;;;;;;6278896;22;20016;-83
2022/06/03 05:43:32;;;;;;;20.88;10.52;;;;;;;;;;6278821;22;20737;-84
2022/06/03 05:46:22;;;;;;;24.40;10.45;;;;;;;;;;6278800;22;20706;-84
2022/06/03 05:49:08;;;;;;;22.33;11.45;;;;;;;;;;6279146;22;20098;-83
2022/06/03 05:52:43;;;;;;;25.13;11.32;;;;;;;;;;6279124;22;20019;-83
2022/06/03 05:55:45;;;;;;;21.98;10.70;;;;;;;;;;6278692;22;20023;-83
2022/06/03 05:58:54;;;;;;;24.15;10.18;;;;;;;;;;6312546;22;20097;-83
2022/06/03 06:01:41;;;;;;;22.90;11.55;;;;;;;;;;6297205;22;20077;-83
2022/06/03 06:04:55;;;;;;;18.52;11.07;;;;;;;;;;6308216;22;20027;-83
2022/06/03 06:08:09;;;;;;;20.08;11.32;;;;;;;;;;6298472;22;20034;-84
2022/06/03 06:10:43;;;;;;;19.20;10.68;;;;;;;;;;6308795;22;20077;-83
2022/06/03 06:13:50;;;;;;;18.73;10.23;;;;;;;;;;6309457;22;20031;-83
2022/06/03 06:16:25;;;;;;;17.52;8.88;;;;;;;;;;6247422;23;20066;-83
2022/06/03 06:19:04;;;;;;;18.27;9.48;;;;;;;;;;6246683;23;20753;-83
2022/06/03 06:21:49;;;;;;;17.02;9.25;;;;;;;;;;6247694;23;20024;-84
2022/06/03 06:24:20;;;;;;;20.27;9.55;;;;;;;;;;6236636;23;20028;-84
2022/06/03 06:27:47;;;;;;;16.45;8.30;;;;;;;;;;6206986;23;20028;-84
2022/06/03 06:30:54;;;;;;;12.65;6.82;;;;;;;;;;6216498;23;20020;-84
2022/06/03 06:33:55;;;;;;;12.15;6.72;;;;;;;;;;6216797;23;20034;-84
2022/06/03 06:36:50;;;;;;;13.52;6.25;;;;;;;;;;6185666;23;20076;-84
2022/06/03 06:39:26;;;;;;;11.35;7.18;;;;;;;;;;6153273;23;20022;-83
2022/06/03 06:42:15;;;;;;;11.30;6.15;;;;;;;;;;6177069;23;20029;-84
2022/06/03 06:45:01;;;;;;;13.27;5.82;;;;;;;;;;6188414;23;20059;-82
2022/06/03 06:47:54;;;;;;;15.13;5.75;;;;;;;;;;6181083;23;20029;-84
2022/06/03 06:50:47;;;;;;;10.85;5.10;;;;;;;;;;6113050;23;20025;-84
2022/06/03 06:53:51;;;;;;;12.23;6.15;;;;;;;;;;6063547;23;20121;-84
2022/06/03 06:56:53;;;;;;;10.63;5.13;;;;;;;;;;6093634;23;20109;-84
2022/06/03 06:59:38;;;;;;;11.30;5.72;;;;;;;;;;6085851;23;20026;-84
2022/06/03 07:02:13;;;;;;;12.82;5.35;;;;;;;;;;6095628;23;20105;-84
2022/06/03 07:04:58;;;;;;;10.35;5.00;;;;;;;;;;6096204;23;20030;-84
2022/06/03 07:07:35;;;;;;;7.50;4.35;;;;;;;;;;6094432;23;20419;-84
2022/06/03 07:10:10;;;;;;;6.32;3.83;;;;;;;;;;6098710;23;20318;-84
2022/06/03 07:12:53;;;;;;;7.53;4.22;;;;;;;;;;6079166;23;20795;-84
2022/06/03 07:22:40;;;;;;;6.05;2.72;;;;;;;;;;6064924;23;20106;-84
2022/06/03 07:25:43;;;;;;;6.22;2.90;;;;;;;;;;6062621;23;20058;-84
2022/06/03 07:28:17;;;;;;;6.55;3.13;;;;;;;;;;6109664;23;20471;-85
2022/06/03 07:31:02;;;;;;;9.82;3.25;;;;;;;;;;6225804;22;20439;-85
2022/06/03 07:33:43;;;;;;;7.97;3.33;;;;;;;;;;6277482;22;20714;-84
2022/06/03 07:36:21;;;;;;;4.93;2.50;;;;;;;;;;6278670;22;20029;-84
2022/06/03 07:39:15;;;;;;;6.65;2.80;;;;;;;;;;6277505;22;20023;-85
2022/06/03 07:41:55;;;;;;;5.15;2.20;;;;;;;;;;6124079;23;20033;-85
2022/06/03 07:45:14;;;;;;;6.45;2.60;;;;;;;;;;6124632;23;20053;-85
2022/06/03 07:47:46;;;;;;;5.65;2.58;;;;;;;;;;6112735;23;20101;-84
2022/06/03 07:50:19;;;;;;;5.93;2.70;;;;;;;;;;6123379;23;20029;-85
2022/06/03 07:53:11;;;;;;;4.53;2.28;;;;;;;;;;6124677;23;20100;-84
2022/06/03 07:55:39;;;;;;;4.50;2.40;;;;;;;;;;6137312;23;20068;-85
2022/06/03 07:58:11;;;;;;;7.72;2.40;;;;;;;;;;6152952;23;20461;-85
2022/06/03 08:00:40;;;;;;;6.65;2.75;;;;;;;;;;6152829;23;20025;-84
2022/06/03 08:03:23;;;;;;;5.75;2.38;;;;;;;;;;6153242;23;20108;-84
2022/06/03 08:06:01;;;;;;;7.63;2.50;;;;;;;;;;6151993;23;20132;-84
2022/06/03 08:11:43;;;;;;;9.98;2.78;;;;;;;;;;6153160;23;20339;-85
2022/06/03 08:14:11;;;;;;;4.78;2.25;;;;;;;;;;6153120;23;20032;-84
2022/06/03 08:16:44;;;;;;;4.22;2.03;;;;;;;;;;6152954;23;20029;-84
2022/06/03 08:19:37;;;;;;;4.90;1.90;;;;;;;;;;6279947;22;20023;-85
2022/06/03 08:22:12;;;;;;;3.38;1.70;;;;;;;;;;6309729;22;20037;-84
2022/06/03 08:24:50;;;;;;;5.75;1.95;;;;;;;;;;6307477;22;20015;-84
2022/06/03 08:27:36;;;;;;;5.28;1.92;;;;;;;;;;6309258;22;20015;-84
2022/06/03 08:30:11;;;;;;;13.98;2.97;;;;;;;;;;6307979;22;20022;-85
2022/06/03 08:33:02;;;;;;;7.68;1.90;;;;;;;;;;6307818;22;20097;-85
2022/06/03 08:35:35;;;;;;;5.80;1.98;;;;;;;;;;6307335;22;20019;-84
2022/06/03 08:38:19;;;;;;;4.75;2.10;;;;;;;;;;6308355;22;20026;-85
2022/06/03 08:41:18;;;;;;;5.38;2.00;;;;;;;;;;6307784;22;20057;-85
2022/06/03 08:44:09;;;;;;;5.57;1.95;;;;;;;;;;6308416;22;20018;-85
2022/06/03 08:47:20;;;;;;;3.35;1.40;;;;;;;;;;6309209;22;20443;-85
2022/06/03 08:50:32;;;;;;;4.45;1.65;;;;;;;;;;6308034;22;20008;-85
2022/06/03 08:53:23;;;;;;;4.30;1.63;;;;;;;;;;6271524;22;20393;-85
2022/06/03 08:55:55;;;;;;;3.30;1.52;;;;;;;;;;6291773;22;20022;-85
2022/06/03 08:58:49;;;;;;;3.50;1.30;;;;;;;;;;6276764;22;20402;-85
2022/06/03 09:01:27;;;;;;;3.70;1.40;;;;;;;;;;6276588;22;20023;-85
2022/06/03 09:04:14;;;;;;;6.28;1.90;;;;;;;;;;6275029;22;20020;-85
2022/06/03 09:07:10;;;;;;;2.97;1.40;;;;;;;;;;6276866;22;20023;-85
2022/06/03 09:09:56;;;;;;;5.63;2.33;;;;;;;;;;6150631;23;20029;-85
2022/06/03 09:12:28;;;;;;;3.90;1.40;;;;;;;;;;6152891;23;20049;-84
2022/06/03 09:15:17;;;;;;;3.83;1.42;;;;;;;;;;6154960;23;20108;-84
2022/06/03 09:17:51;;;;;;;2.92;1.30;;;;;;;;;;6156875;23;20026;-84
2022/06/03 09:20:22;;;;;;;4.93;1.95;;;;;;;;;;6152175;23;20037;-84
2022/06/03 09:22:56;;;;;;;7.22;1.52;;;;;;;;;;6152132;23;20120;-84
2022/06/03 09:25:31;;;;;;;3.95;1.67;;;;;;;;;;6152136;23;20052;-84
2022/06/03 09:28:06;;;;;;;3.03;1.50;;;;;;;;;;6152041;23;20049;-84
2022/06/03 09:30:38;;;;;;;4.38;2.05;;;;;;;;;;6152311;23;20088;-85
2022/06/03 09:33:08;;;;;;;4.45;1.60;;;;;;;;;;6154256;23;20069;-84
2022/06/03 09:35:45;;;;;;;3.97;1.65;;;;;;;;;;6152736;23;20096;-84
2022/06/03 09:38:16;;;;;;;3.65;1.63;;;;;;;;;;6153954;23;20025;-85
2022/06/03 09:40:46;;;;;;;4.82;1.58;;;;;;;;;;6153703;23;20049;-84
2022/06/03 09:43:13;;;;;;;6.07;1.48;;;;;;;;;;6153484;23;20132;-84
2022/06/03 09:45:46;;;;;;;6.57;1.52;;;;;;;;;;6156561;22;20044;-84
2022/06/03 09:48:41;;;;;;;6.05;1.45;;;;;;;;;;6275829;22;20016;-85
2022/06/03 09:51:55;;;;;;;3.83;1.23;;;;;;;;;;6278401;22;20107;-85
2022/06/03 09:55:06;;;;;;;6.65;1.40;;;;;;;;;;6282235;22;20011;-85
2022/06/03 09:57:41;;;;;;;3.10;1.47;;;;;;;;;;6309653;22;20023;-85
2022/06/03 10:00:51;;;;;;;3.13;1.35;;;;;;;;;;6309706;22;20015;-85
2022/06/03 10:03:26;;;;;;;3.28;1.30;;;;;;;;;;6308507;22;20019;-85
2022/06/03 10:05:56;;;;;;;5.27;1.77;;;;;;;;;;6309086;22;20049;-85
2022/06/03 10:08:29;;;;;;;4.32;1.42;;;;;;;;;;6310167;22;20030;-85
2022/06/03 10:13:43;;;;;;;3.75;1.33;;;;;;;;;;6309013;22;20015;-85
2022/06/03 10:16:12;;;;;;;2.75;1.30;;;;;;;;;;6309853;22;20029;-85
2022/06/03 10:18:46;;;;;;;2.58;1.15;;;;;;;;;;6309759;22;20548;-85
2022/06/03 10:21:19;;;;;;;3.83;1.08;;;;;;;;;;6308293;22;20613;-84
2022/06/03 10:24:12;;;;;;;3.67;1.08;;;;;;;;;;6308906;22;20023;-86
2022/06/03 10:27:05;;;;;;;2.97;1.33;;;;;;;;;;6308599;22;20018;-84
2022/06/03 10:29:46;;;;;;;7.90;1.48;;;;;;;;;;6308481;22;20019;-85
2022/06/03 10:32:16;;;;;;;2.35;1.10;;;;;;;;;;6306980;22;20023;-85
2022/06/03 10:34:47;;;;;;;6.18;1.20;;;;;;;;;;6306933;22;20557;-84
2022/06/03 10:37:21;;;;;;;3.53;1.10;;;;;;;;;;6300035;22;20135;-85
2022/06/03 10:39:54;;;;;;;2.33;1.17;;;;;;;;;;6308783;22;20023;-84
2022/06/03 10:42:23;;;;;;;3.10;1.08;;;;;;;;;;6309295;22;20666;-84
2022/06/03 10:44:57;;;;;;;2.97;1.00;;;;;;;;;;6309245;22;20756;-85
2022/06/03 10:47:34;;;;;;;2.95;0.90;;;;;;;;;;6298785;22;20027;-84
2022/06/03 10:50:06;;;;;;;2.30;1.10;;;;;;;;;;6296631;22;20070;-85
2022/06/03 11:02:14;;;;;;;4.53;1.17;;;;;;;;;;6298694;22;20061;-85
2022/06/03 11:04:47;;;;;;;3.15;0.90;;;;;;;;;;6309086;22;20023;-83
2022/06/03 11:07:27;;;;;;;3.03;0.80;;;;;;;;;;6308033;22;20031;-83
2022/06/03 11:13:11;;;;;;;3.40;1.30;;;;;;;;;;6297064;22;20059;-83
2022/06/03 11:15:48;;;;;;;1.87;0.83;;;;;;;;;;6309313;22;20023;-83
2022/06/03 11:18:42;;;;;;;2.72;1.23;;;;;;;;;;6297238;22;20747;-83
2022/06/03 11:21:25;;;;;;;1.67;0.73;;;;;;;;;;6299521;22;20077;-83
2022/06/03 11:23:56;;;;;;;3.72;1.10;;;;;;;;;;6308880;22;20019;-83
2022/06/03 11:26:36;;;;;;;4.03;1.10;;;;;;;;;;6306614;22;20102;-84
2022/06/03 11:29:26;;;;;;;4.03;1.10;;;;;;;;;;6310034;22;20096;-83
2022/06/03 11:32:02;;;;;;;3.50;1.10;;;;;;;;;;6308733;22;20015;-83
2022/06/03 11:34:43;;;;;;;3.58;1.13;;;;;;;;;;6297258;22;20093;-83
2022/06/03 11:37:26;;;;;;;2.30;0.90;;;;;;;;;;6279803;22;20053;-83
2022/06/03 11:40:29;;;;;;;3.67;1.13;;;;;;;;;;6307577;22;20069;-83
2022/06/03 11:43:06;;;;;;;3.85;1.35;;;;;;;;;;6306726;22;20016;-83
2022/06/03 11:46:13;;;;;;;3.90;1.30;;;;;;;;;;6310465;22;20046;-83
2022/06/03 11:48:43;;;;;;;2.20;1.00;;;;;;;;;;6173978;23;20571;-83
2022/06/03 11:51:15;;;;;;;2.78;1.30;;;;;;;;;;6186212;23;20028;-83
2022/06/03 11:53:49;;;;;;;2.78;1.15;;;;;;;;;;6182498;23;20033;-84
2022/06/03 11:56:27;;;;;;;3.25;1.00;;;;;;;;;;6173815;23;20357;-84
2022/06/03 11:59:45;;;;;;;4.25;1.65;;;;;;;;;;6147281;23;20388;-85
2022/06/03 12:02:24;;;;;;;5.20;1.10;;;;;;;;;;6182786;23;20020;-85
2022/06/03 12:05:00;;;;;;;3.20;1.20;;;;;;;;;;6183429;23;20056;-85
2022/06/03 12:07:49;;;;;;;2.15;1.00;;;;;;;;;;6188878;23;20528;-84
2022/06/03 12:10:24;;;;;;;2.92;1.30;;;;;;;;;;6183437;23;20025;-84
2022/06/03 12:13:27;;;;;;;2.20;1.10;;;;;;;;;;6172685;23;20334;-84
2022/06/03 12:15:56;;;;;;;2.65;1.00;;;;;;;;;;6183009;23;20782;-83
2022/06/03 12:18:32;;;;;;;2.17;1.00;;;;;;;;;;6183567;23;20029;-84
2022/06/03 12:21:08;;;;;;;1.73;0.75;;;;;;;;;;6173186;23;20024;-84
2022/06/03 12:23:49;;;;;;;2.55;1.08;;;;;;;;;;6182582;23;20021;-84
2022/06/03 12:26:31;;;;;;;2.75;1.10;;;;;;;;;;6266037;22;20065;-84
2022/06/03 12:29:37;;;;;;;3.92;1.00;;;;;;;;;;6278622;22;20024;-84
2022/06/03 12:32:11;;;;;;;;;;;;;;;;;;6213111;23;20031;-85
2022/06/03 12:34:39;;;;;;;5.28;1.52;;;;;;;;;;6213495;23;20002;-85
2022/06/03 12:37:29;;;;;;;2.53;0.90;;;;;;;;;;6215550;23;20024;-84
2022/06/03 12:40:02;;;;;;;1.83;0.90;;;;;;;;;;6212808;23;20725;-85
2022/06/03 12:42:40;;;;;;;4.77;1.00;;;;;;;;;;6212901;23;20219;-84
2022/06/03 12:45:12;;;;;;;1.80;1.00;;;;;;;;;;6212599;23;20271;-84
2022/06/03 12:47:49;;;;;;;1.70;0.85;;;;;;;;;;6213340;23;20028;-85
2022/06/03 12:50:39;;;;;;;1.77;0.88;;;;;;;;;;6211572;23;20067;-85
2022/06/03 12:53:36;;;;;;;1.95;0.85;;;;;;;;;;6212015;23;20070;-85
2022/06/03 12:56:08;;;;;;;3.93;0.83;;;;;;;;;;6211807;23;20040;-85
2022/06/03 12:59:16;;;;;;;3.47;1.20;;;;;;;;;;6211877;23;20418;-84
2022/06/03 13:01:51;;;;;;;1.20;0.70;;;;;;;;;;6211322;23;20127;-85
2022/06/03 13:04:40;;;;;;;3.78;0.88;;;;;;;;;;6211994;23;20020;-85
2022/06/03 13:07:27;;;;;;;2.67;1.08;;;;;;;;;;6214679;22;20558;-84
2022/06/03 13:10:04;;;;;;;2.03;0.77;;;;;;;;;;6279463;22;20099;-84
2022/06/03 13:12:37;;;;;;;1.88;0.80;;;;;;;;;;6277426;22;20039;-84
2022/06/03 13:15:21;;;;;;;1.88;1.00;;;;;;;;;;6278385;22;20020;-84
2022/06/03 13:21:23;;;;;;;2.53;1.15;;;;;;;;;;6266838;22;20671;-84
2022/06/03 13:24:25;;;;;;;3.50;1.10;;;;;;;;;;6279476;22;20019;-83
2022/06/03 13:27:11;;;;;;;3.13;0.75;;;;;;;;;;6266151;22;20077;-83
2022/06/03 13:29:57;;;;;;;3.13;1.30;;;;;;;;;;6266075;22;20038;-84
2022/06/03 13:32:34;;;;;;;1.80;0.98;;;;;;;;;;6277423;22;20015;-85
2022/06/03 13:35:28;;;;;;;3.10;1.00;;;;;;;;;;6277584;22;20004;-85
2022/06/03 13:38:00;;;;;;;2.55;0.93;;;;;;;;;;6277661;22;20740;-85
2022/06/03 13:40:32;;;;;;;3.10;0.98;;;;;;;;;;6277408;22;20019;-85
2022/06/03 13:43:12;;;;;;;2.43;0.93;;;;;;;;;;6276980;22;20023;-84
2022/06/03 13:46:06;;;;;;;2.90;1.02;;;;;;;;;;6275541;22;20265;-84
2022/06/03 13:48:42;;;;;;;2.65;0.73;;;;;;;;;;6278591;22;20024;-84
2022/06/03 13:51:21;;;;;;;3.75;0.88;;;;;;;;;;6278863;22;20016;-84
2022/06/03 13:53:53;;;;;;;2.10;0.88;;;;;;;;;;6278771;22;20485;-84
2022/06/03 13:56:27;;;;;;;2.20;0.70;;;;;;;;;;6269657;22;20094;-84
2022/06/03 13:58:57;;;;;;;2.53;0.83;;;;;;;;;;6266986;22;20024;-83
2022/06/03 14:01:28;;;;;;;3.72;1.02;;;;;;;;;;6278055;22;21001;-84
2022/06/03 14:04:03;;;;;;;2.67;1.05;;;;;;;;;;6278758;22;20029;-83
2022/06/03 14:06:38;;;;;;;3.08;0.90;;;;;;;;;;6278576;22;20122;-84
2022/06/03 14:09:23;;;;;;;2.53;1.10;;;;;;;;;;6278859;22;20047;-85
2022/06/03 14:12:18;;;;;;;4.15;1.00;;;;;;;;;;6278044;22;20030;-85
2022/06/03 14:15:04;;;;;;;1.80;0.80;;;;;;;;;;6277181;22;20402;-85
2022/06/03 14:17:46;;;;;;;2.28;1.00;;;;;;;;;;6277144;22;20027;-85
2022/06/03 14:20:16;;;;;;;3.63;0.90;;;;;;;;;;6277149;22;20020;-85
2022/06/03 14:23:03;;;;;;;2.30;0.90;;;;;;;;;;6278607;22;20447;-83
2022/06/03 14:25:45;;;;;;;3.05;0.77;;;;;;;;;;6267240;22;20439;-83
2022/06/03 14:28:50;;;;;;;2.65;0.95;;;;;;;;;;6267910;22;20027;-84
2022/06/03 14:31:56;;;;;;;;;;;;;;;;;;6277851;22;20071;-83
2022/06/03 14:34:29;;;;;;;1.88;0.82;;;;;;;;;;6202661;23;19956;-83
2022/06/03 14:36:58;;;;;;;1.90;0.87;;;;;;;;;;6212834;23;20024;-83
2022/06/03 14:39:35;;;;;;;1.27;0.70;;;;;;;;;;6212511;23;20443;-83
2022/06/03 14:42:29;;;;;;;1.90;0.80;;;;;;;;;;6213326;23;20016;-83
2022/06/03 14:44:59;;;;;;;1.55;0.80;;;;;;;;;;6176914;23;20024;-83
2022/06/03 14:47:32;;;;;;;2.10;1.08;;;;;;;;;;6213803;23;20052;-83
2022/06/03 14:50:34;;;;;;;2.45;0.90;;;;;;;;;;6212672;23;20585;-83
2022/06/03 14:53:08;;;;;;;4.60;1.20;;;;;;;;;;6124791;23;20029;-83
2022/06/03 14:56:11;;;;;;;4.25;1.08;;;;;;;;;;6128536;23;20146;-83
2022/06/03 14:59:10;;;;;;;2.55;1.00;;;;;;;;;;6153392;23;20468;-83
2022/06/03 15:01:50;;;;;;;1.88;0.82;;;;;;;;;;6142200;23;20040;-83
2022/06/03 15:04:52;;;;;;;2.20;1.00;;;;;;;;;;6150809;23;20021;-83
2022/06/03 15:07:31;;;;;;;3.47;1.20;;;;;;;;;;6143591;23;20025;-84
2022/06/03 15:10:10;;;;;;;2.42;1.08;;;;;;;;;;6155315;23;20029;-86
2022/06/03 15:12:51;;;;;;;3.57;1.10;;;;;;;;;;6155866;23;20022;-85
2022/06/03 15:15:34;;;;;;;28.67;2.70;;;;;;;;;;6154531;23;20060;-86
2022/06/03 15:18:14;;;;;;;3.20;1.02;;;;;;;;;;6154998;23;20025;-86
2022/06/03 15:21:11;;;;;;;1.83;0.80;;;;;;;;;;6153208;23;20025;-86
2022/06/03 15:24:07;;;;;;;2.33;0.88;;;;;;;;;;6152942;23;20064;-86
2022/06/03 15:26:59;;;;;;;2.40;1.02;;;;;;;;;;6152684;23;20025;-85
2022/06/03 15:29:31;;;;;;;1.65;0.95;;;;;;;;;;6255363;22;20027;-86
2022/06/03 15:32:01;;;;;;;2.92;1.00;;;;;;;;;;6277792;22;20340;-85
2022/06/03 15:34:33;;;;;;;2.13;0.90;;;;;;;;;;6277455;22;20016;-85
2022/06/03 15:37:03;;;;;;;2.70;1.10;;;;;;;;;;6278313;22;20027;-85
2022/06/03 15:39:33;;;;;;;2.20;1.38;;;;;;;;;;6279062;22;20409;-85
2022/06/03 15:42:24;;;;;;;1.92;1.05;;;;;;;;;;6277938;22;20019;-85
2022/06/03 15:45:03;;;;;;;2.47;1.02;;;;;;;;;;6278597;22;20119;-86
2022/06/03 15:48:00;;;;;;;5.70;1.30;;;;;;;;;;6278767;22;20008;-85
2022/06/03 15:50:27;;;;;;;4.28;1.10;;;;;;;;;;6278273;22;20101;-86
2022/06/03 15:52:56;;;;;;;4.65;0.88;;;;;;;;;;6279832;22;20016;-86
2022/06/03 15:55:31;;;;;;;34.78;2.42;;;;;;;;;;6277920;22;20023;-90
2022/06/03 15:58:34;;;;;;;1.95;1.00;;;;;;;;;;6309202;22;20041;-87
2022/06/03 16:01:25;;;;;;;2.63;1.00;;;;;;;;;;6182960;23;20544;-85
2022/06/03 16:04:25;;;;;;;2.78;1.20;;;;;;;;;;6183492;23;20099;-85
2022/06/03 16:07:05;;;;;;;2.17;1.10;;;;;;;;;;6182020;23;20024;-85
2022/06/03 16:09:52;;;;;;;2.13;0.90;;;;;;;;;;6181058;23;20119;-87
2022/06/03 16:12:28;;;;;;;2.03;1.08;;;;;;;;;;6183162;23;20457;-84
2022/06/03 16:15:13;;;;;;;3.40;1.20;;;;;;;;;;6184153;23;20104;-84
2022/06/03 16:17:47;;;;;;;3.88;1.10;;;;;;;;;;6182369;23;20532;-86
2022/06/03 16:20:47;;;;;;;3.25;1.20;;;;;;;;;;6183723;23;20121;-86
2022/06/03 16:23:46;;;;;;;4.70;1.85;;;;;;;;;;6183509;23;20402;-86
2022/06/03 16:26:27;;;;;;;3.03;1.20;;;;;;;;;;6182263;23;20038;-87
2022/06/03 16:29:01;;;;;;;2.92;1.20;;;;;;;;;;6182753;23;20025;-87
2022/06/03 16:32:11;;;;;;;4.03;1.10;;;;;;;;;;6181696;23;20151;-87
2022/06/03 16:34:58;;;;;;;2.10;0.90;;;;;;;;;;6222702;22;20031;-84
2022/06/03 16:38:04;;;;;;;3.05;1.10;;;;;;;;;;6308561;22;20025;-84
2022/06/03 16:40:47;;;;;;;4.35;1.00;;;;;;;;;;6308362;22;20019;-83
2022/06/03 16:43:44;;;;;;;4.97;1.30;;;;;;;;;;6308105;22;20019;-83
2022/06/03 16:46:22;;;;;;;3.47;1.00;;;;;;;;;;6308307;22;20480;-83
2022/06/03 16:49:17;;;;;;;2.35;0.93;;;;;;;;;;6308844;22;20015;-84
2022/06/03 16:51:54;;;;;;;2.33;1.05;;;;;;;;;;6308012;22;20015;-84
2022/06/03 16:54:28;;;;;;;1.58;0.88;;;;;;;;;;6309221;22;20423;-84
2022/06/03 16:56:59;;;;;;;2.22;1.08;;;;;;;;;;6277975;22;20481;-84
2022/06/03 16:59:34;;;;;;;3.13;1.17;;;;;;;;;;6240032;22;20024;-86
2022/06/03 17:02:02;;;;;;;3.83;1.05;;;;;;;;;;6243107;22;20019;-85
2022/06/03 17:04:42;;;;;;;9.57;1.20;;;;;;;;;;6272861;22;20549;-86
2022/06/03 17:07:38;;;;;;;2.78;1.20;;;;;;;;;;6277311;22;20011;-86
2022/06/03 17:13:06;;;;;;;1.88;1.00;;;;;;;;;;6276250;22;20035;-86
2022/06/03 17:15:35;;;;;;;3.10;1.02;;;;;;;;;;6277965;22;20102;-86
2022/06/03 17:18:05;;;;;;;1.80;0.90;;;;;;;;;;6276186;22;20031;-86
2022/06/03 17:20:40;;;;;;;4.03;1.30;;;;;;;;;;6275497;22;20027;-85
2022/06/03 17:23:37;;;;;;;2.60;1.40;;;;;;;;;;6274410;22;20023;-85
2022/06/03 17:26:44;;;;;;;4.03;1.60;;;;;;;;;;6116484;23;20037;-85
2022/06/03 17:29:48;;;;;;;3.28;1.60;;;;;;;;;;6125215;23;20025;-85
2022/06/03 17:32:25;;;;;;;3.60;1.80;;;;;;;;;;6121727;23;20025;-84
2022/06/03 17:35:01;;;;;;;3.08;1.33;;;;;;;;;;6123321;23;20030;-85
2022/06/03 17:38:35;;;;;;;3.03;1.20;;;;;;;;;;6123503;23;20049;-85
2022/06/03 17:41:35;;;;;;;3.65;2.03;;;;;;;;;;6035960;23;20813;-84
2022/06/03 17:44:14;;;;;;;2.50;1.00;;;;;;;;;;6036746;23;20051;-85
2022/06/03 17:47:20;;;;;;;2.33;1.33;;;;;;;;;;6034577;23;20031;-84
2022/06/03 17:49:58;;;;;;;2.67;1.23;;;;;;;;;;6035587;23;20038;-83
2022/06/03 17:56:11;;;;;;;4.50;1.30;;;;;;;;;;6028552;23;20058;-84
2022/06/03 17:58:58;;;;;;;2.53;1.15;;;;;;;;;;6037796;23;20091;-85
2022/06/03 18:01:34;;;;;;;2.90;1.20;;;;;;;;;;6032886;23;20047;-84
2022/06/03 18:04:26;;;;;;;3.00;1.08;;;;;;;;;;6166542;23;20029;-84
2022/06/03 18:07:03;;;;;;;2.60;1.25;;;;;;;;;;6183769;23;20113;-84
2022/06/03 18:09:56;;;;;;;2.90;1.10;;;;;;;;;;6184315;23;20025;-84
2022/06/03 18:12:27;;;;;;;1.70;0.90;;;;;;;;;;6184276;23;20116;-85
2022/06/03 18:15:21;;;;;;;2.55;1.30;;;;;;;;;;6183815;23;20031;-84
2022/06/03 18:17:59;;;;;;;2.58;1.10;;;;;;;;;;6215300;22;20028;-84
2022/06/03 18:20:51;;;;;;;2.45;1.23;;;;;;;;;;6279214;22;20023;-85
2022/06/03 18:23:43;;;;;;;2.33;1.27;;;;;;;;;;6278204;22;20038;-84
2022/06/03 18:26:31;;;;;;;2.97;1.20;;;;;;;;;;6278072;22;20490;-84
2022/06/03 18:29:32;;;;;;;1.70;0.98;;;;;;;;;;6278523;22;20422;-84
2022/06/03 18:32:33;;;;;;;2.28;1.15;;;;;;;;;;6275497;22;20030;-84
2022/06/03 18:35:21;;;;;;;5.75;1.48;;;;;;;;;;6229591;22;20572;-84
2022/06/03 18:38:34;;;;;;;3.47;1.30;;;;;;;;;;6277967;22;20082;-83
2022/06/03 18:41:26;;;;;;;2.92;1.35;;;;;;;;;;6278992;22;20756;-84
2022/06/03 18:44:35;;;;;;;4.43;1.48;;;;;;;;;;6268118;22;20031;-83
2022/06/03 18:47:22;;;;;;;2.95;1.30;;;;;;;;;;6277822;22;20024;-84
2022/06/03 18:53:11;;;;;;;;;;;;;;;;;;6268993;22;20033;-83
2022/06/03 18:56:25;;;;;;;2.28;1.23;;;;;;;;;;6287361;22;19918;-83
2022/06/03 18:58:59;;;;;;;;;;;;;;;;;;6300332;22;20725;-83
2022/06/03 19:01:48;;;;;;;6.07;1.50;;;;;;;;;;6297119;22;20472;-83
2022/06/03 19:04:55;;;;;;;3.60;1.67;;;;;;;;;;6299387;22;20015;-83
2022/06/03 19:07:54;;;;;;;3.40;1.50;;;;;;;;;;6300179;22;20090;-83
2022/06/03 19:10:57;;;;;;;3.38;1.40;;;;;;;;;;6300667;22;20076;-83
2022/06/03 19:13:35;;;;;;;3.25;2.10;;;;;;;;;;6310260;22;20019;-83
2022/06/03 19:16:43;;;;;;;2.80;1.40;;;;;;;;;;6309464;22;20042;-83
2022/06/03 19:19:24;;;;;;;4.35;1.67;;;;;;;;;;6184210;23;20108;-83
2022/06/03 19:22:07;;;;;;;5.97;1.85;;;;;;;;;;6182805;23;20021;-83
2022/06/03 19:25:02;;;;;;;3.25;1.63;;;;;;;;;;6183118;23;20034;-83
2022/06/03 19:27:33;;;;;;;;;;;;;;;;;;6183992;23;20144;-83
2022/06/03 19:30:30;;;;;;;3.50;1.80;;;;;;;;;;6174313;23;20601;-83
2022/06/03 19:33:01;;;;;;;5.95;1.80;;;;;;;;;;6182937;23;20024;-83
2022/06/03 19:35:31;;;;;;;2.70;1.70;;;;;;;;;;6184997;23;20172;-83
2022/06/03 19:38:36;;;;;;;;;;;;;;;;;;6174255;23;20053;-83
2022/06/03 19:41:39;;;;;;;3.50;1.90;;;;;;;;;;6174056;23;19920;-83
2022/06/03 19:44:32;;;;;;;4.05;1.67;;;;;;;;;;6175104;23;20121;-83
2022/06/03 19:47:35;;;;;;;3.42;1.90;;;;;;;;;;6173415;23;20524;-84
2022/06/03 19:53:22;;;;;;;4.65;2.10;;;;;;;;;;6174018;23;20069;-83
2022/06/03 19:56:20;;;;;;;5.50;2.55;;;;;;;;;;6215640;22;20027;-87
2022/06/03 19:58:57;;;;;;;8.40;2.90;;;;;;;;;;6259436;22;20031;-87
2022/06/03 20:01:39;;;;;;;8.23;4.40;;;;;;;;;;6276199;22;20127;-85
2022/06/03 20:04:21;;;;;;;10.27;6.47;;;;;;;;;;6278909;22;20027;-85
2022/06/03 20:06:59;;;;;;;7.97;4.80;;;;;;;;;;6241478;22;20031;-85
2022/06/03 20:10:01;;;;;;;11.07;5.22;;;;;;;;;;6278790;22;20029;-86
2022/06/03 20:15:41;;;;;;;11.68;5.22;;;;;;;;;;6278280;22;20043;-85
2022/06/03 20:18:47;;;;;;;10.20;5.07;;;;;;;;;;6278474;22;20020;-86
2022/06/03 20:21:42;;;;;;;9.30;4.80;;;;;;;;;;6279499;22;20025;-87
2022/06/03 20:24:54;;;;;;;8.15;5.07;;;;;;;;;;6261509;22;20426;-87
2022/06/03 20:28:04;;;;;;;6.80;3.70;;;;;;;;;;6173451;23;20404;-87
2022/06/03 20:30:34;;;;;;;7.80;4.30;;;;;;;;;;6182754;23;20119;-88
2022/06/03 20:33:19;;;;;;;6.93;4.32;;;;;;;;;;6183054;23;20033;-87
2022/06/03 20:35:52;;;;;;;7.95;3.70;;;;;;;;;;6184248;23;20048;-87
2022/06/03 20:38:35;;;;;;;5.32;3.40;;;;;;;;;;6183550;23;20192;-86
2022/06/03 20:41:27;;;;;;;7.03;3.60;;;;;;;;;;6184120;23;20025;-87
2022/06/03 20:43:55;;;;;;;5.93;2.70;;;;;;;;;;6183298;23;20021;-86
2022/06/03 20:46:50;;;;;;;8.52;3.30;;;;;;;;;;6183054;23;20063;-87
2022/06/03 20:49:43;;;;;;;5.97;3.30;;;;;;;;;;6173619;23;20029;-87
2022/06/03 20:52:51;;;;;;;5.57;3.67;;;;;;;;;;6149112;23;20366;-87
2022/06/03 20:55:28;;;;;;;6.85;3.28;;;;;;;;;;6184051;23;20515;-86
2022/06/03 20:58:14;;;;;;;4.38;2.45;;;;;;;;;;6182614;23;20996;-87
2022/06/03 21:00:41;;;;;;;5.60;2.92;;;;;;;;;;6182178;23;20028;-86
2022/06/03 21:12:48;;;;;;;7.60;3.17;;;;;;;;;;6182446;23;20035;-85
2022/06/03 21:14:27;;;;;;;9.68;7.13;;;;;;;;;;6181469;23;20028;-89
2022/06/03 21:17:15;;;;;;;9.23;5.45;;;;;;;;;;6157151;23;20600;-89
2022/06/03 21:19:43;;;;;;;7.97;5.05;;;;;;;;;;6182707;23;20032;-89